createdAt,value
2022-09-05T00:01:03.461Z,3.00
2022-09-05T00:06:11.182Z,2.37
2022-09-05T00:11:40.386Z,2.60
2022-09-05T00:16:59.813Z,2.43
2022-09-05T00:24:30.780Z,2.67
2022-09-05T00:27:58.900Z,2.80
2022-09-05T00:33:27.361Z,2.40
2022-09-05T00:38:37.279Z,3.00
2022-09-05T00:43:44.542Z,2.37
2022-09-05T00:48:54.459Z,2.33
2022-09-05T00:54:40.576Z,2.67
2022-09-05T01:00:06.049Z,2.60
2022-09-05T01:05:22.486Z,2.33
2022-09-05T01:10:38.228Z,2.40
2022-09-05T01:15:50.520Z,2.77
2022-09-05T01:21:14.099Z,2.27
2022-09-05T01:26:55.348Z,2.17
2022-09-05T01:32:16.532Z,2.30
2022-09-05T01:37:29.675Z,2.10
2022-09-05T01:42:44.060Z,2.40
2022-09-05T01:47:58.985Z,2.20
2022-09-05T01:53:25.828Z,2.37
2022-09-05T01:58:49.133Z,2.03
2022-09-05T02:04:08.385Z,2.80
2022-09-05T02:09:36.404Z,2.30
2022-09-05T02:14:45.827Z,2.53
2022-09-05T02:19:56.455Z,2.00
2022-09-05T02:25:27.750Z,1.93
2022-09-05T02:30:36.196Z,2.40
2022-09-05T02:35:48.436Z,2.20
2022-09-05T02:45:19.010Z,2.43
2022-09-05T02:46:31.624Z,2.13
2022-09-05T02:57:29.696Z,2.33
2022-09-05T02:58:07.639Z,2.40
2022-09-05T03:03:21.408Z,2.40
2022-09-05T03:09:08.055Z,2.27
2022-09-05T03:15:22.850Z,2.73
2022-09-05T03:20:53.152Z,1.90
2022-09-05T03:26:21.237Z,2.40
2022-09-05T03:31:39.555Z,2.70
2022-09-05T03:37:10.141Z,2.30
2022-09-05T03:42:48.262Z,1.90
2022-09-05T03:48:36.745Z,2.40
2022-09-05T03:57:11.773Z,2.20
2022-09-05T03:59:48.409Z,2.70
2022-09-05T04:08:16.625Z,1.90
2022-09-05T04:10:30.365Z,2.57
2022-09-05T04:15:42.430Z,2.10
2022-09-05T04:20:51.621Z,2.70
2022-09-05T04:31:32.144Z,2.20
2022-09-05T04:36:39.565Z,2.40
2022-09-05T04:41:48.255Z,2.60
2022-09-05T04:46:57.267Z,2.23
2022-09-05T04:52:27.277Z,2.77
2022-09-05T04:57:41.376Z,2.60
2022-09-05T05:06:11.540Z,2.40
2022-09-05T05:08:37.843Z,2.40
2022-09-05T05:17:59.775Z,2.73
2022-09-05T05:19:21.666Z,2.50
2022-09-05T05:24:29.499Z,2.27
2022-09-05T05:29:43.271Z,2.30
2022-09-05T05:34:53.083Z,2.07
2022-09-05T05:40:07.412Z,2.40
2022-09-05T05:45:19.257Z,2.00
2022-09-05T05:50:36.628Z,2.07
2022-09-05T05:56:13.087Z,2.37
2022-09-05T06:01:40.824Z,3.57
2022-09-05T06:06:58.141Z,3.47
2022-09-05T06:15:04.805Z,4.00
2022-09-05T06:18:32.010Z,4.50
2022-09-05T06:24:07.975Z,4.70
2022-09-05T06:29:24.818Z,4.83
2022-09-05T06:35:17.397Z,3.37
2022-09-05T06:40:32.211Z,3.20
2022-09-05T06:45:44.000Z,2.80
2022-09-05T06:51:16.051Z,2.70
2022-09-05T06:56:48.156Z,2.77
2022-09-05T07:02:01.269Z,2.93
2022-09-05T07:07:18.012Z,2.73
2022-09-05T07:12:30.207Z,2.90
2022-09-05T07:18:06.483Z,2.77
2022-09-05T07:24:02.298Z,3.27
2022-09-05T07:28:49.282Z,3.10
2022-09-05T07:34:20.713Z,3.23
2022-09-05T07:39:29.383Z,3.70
2022-09-05T07:44:37.991Z,3.37
2022-09-05T07:50:40.174Z,3.23
2022-09-05T07:56:52.456Z,2.20
2022-09-05T08:00:42.210Z,2.60
2022-09-05T08:05:49.715Z,2.17
2022-09-05T08:11:23.810Z,1.90
2022-09-05T08:16:25.616Z,2.03
2022-09-05T08:21:42.067Z,2.03
2022-09-05T08:26:51.381Z,1.53
2022-09-05T08:32:02.915Z,1.63
2022-09-05T08:37:10.695Z,1.63
2022-09-05T08:42:29.400Z,2.07
2022-09-05T08:47:45.645Z,1.80
2022-09-05T08:52:57.863Z,2.67
2022-09-05T08:58:20.769Z,6.10
2022-09-05T09:03:31.484Z,3.20
2022-09-05T09:08:51.761Z,2.33
2022-09-05T09:13:57.700Z,2.17
2022-09-05T09:19:10.421Z,2.20
2022-09-05T09:24:28.043Z,2.40
2022-09-05T09:29:37.646Z,1.70
2022-09-05T09:34:52.930Z,1.90
2022-09-05T09:40:38.729Z,2.47
2022-09-05T09:46:04.989Z,2.30
2022-09-05T09:51:38.072Z,1.67
2022-09-05T09:57:16.980Z,1.60
2022-09-05T10:07:10.643Z,1.37
2022-09-05T10:10:44.276Z,1.90
2022-09-05T10:14:26.168Z,1.90
2022-09-05T10:20:09.876Z,1.97
2022-09-05T10:25:30.019Z,2.00
2022-09-05T10:33:01.050Z,2.10
2022-09-05T10:36:31.300Z,1.50
2022-09-05T10:41:50.025Z,1.70
2022-09-05T10:47:06.358Z,1.37
2022-09-05T10:52:18.636Z,1.80
2022-09-05T10:57:38.208Z,1.50
2022-09-05T11:02:48.152Z,1.50
2022-09-05T11:08:03.157Z,1.73
2022-09-05T11:13:23.927Z,1.67
2022-09-05T11:19:07.985Z,1.40
2022-09-05T11:24:27.395Z,1.70
2022-09-05T11:29:38.832Z,1.60
2022-09-05T11:39:45.717Z,1.77
2022-09-05T11:40:59.184Z,1.67
2022-09-05T11:46:22.980Z,1.63
2022-09-05T11:52:08.528Z,1.57
2022-09-05T11:57:33.143Z,1.63
2022-09-05T12:03:57.198Z,1.60
2022-09-05T12:08:41.994Z,1.50
2022-09-05T12:13:54.946Z,1.17
2022-09-05T12:19:19.265Z,1.33
2022-09-05T12:25:26.560Z,1.23
2022-09-05T12:30:00.916Z,1.47
2022-09-05T12:36:10.696Z,1.50
2022-09-05T12:41:38.351Z,1.27
2022-09-05T12:46:05.728Z,1.53
2022-09-05T12:51:46.992Z,1.40
2022-09-05T13:00:50.918Z,1.37
2022-09-05T13:03:13.477Z,1.50
2022-09-05T13:07:56.236Z,1.37
2022-09-05T13:13:03.966Z,1.63
2022-09-05T13:18:31.283Z,1.20
2022-09-05T13:23:43.663Z,1.17
2022-09-05T13:29:09.898Z,1.57
2022-09-05T13:38:06.614Z,1.53
2022-09-05T13:39:52.411Z,1.77
2022-09-05T13:44:58.927Z,1.80
2022-09-05T13:50:23.691Z,2.00
2022-09-05T13:55:39.164Z,1.50
2022-09-05T14:01:06.530Z,1.40
2022-09-05T14:06:45.740Z,1.57
2022-09-05T14:11:58.680Z,1.50
2022-09-05T14:22:40.846Z,1.50
2022-09-05T14:27:48.944Z,1.53
2022-09-05T14:37:39.309Z,1.70
2022-09-05T14:39:14.398Z,1.60
2022-09-05T14:44:41.661Z,1.60
2022-09-05T14:50:06.179Z,1.47
2022-09-05T15:02:52.077Z,1.73
2022-09-05T15:05:50.508Z,1.27
2022-09-05T15:12:16.777Z,1.47
2022-09-05T15:16:24.790Z,1.77
2022-09-05T15:21:34.670Z,1.50
2022-09-05T15:26:51.930Z,1.40
2022-09-05T15:32:15.431Z,1.60
2022-09-05T15:37:24.695Z,1.30
2022-09-05T15:42:32.807Z,1.83
2022-09-05T15:47:39.537Z,1.50
2022-09-05T15:52:46.831Z,1.77
2022-09-05T15:58:00.350Z,1.60
2022-09-05T16:04:12.849Z,1.30
2022-09-05T16:16:29.900Z,1.50
2022-09-05T16:23:36.595Z,1.50
2022-09-05T16:26:56.646Z,1.20
2022-09-05T16:32:25.060Z,1.37
2022-09-05T16:37:54.947Z,1.73
2022-09-05T16:43:22.477Z,1.70
2022-09-05T16:48:55.245Z,1.30
2022-09-05T16:54:30.999Z,1.50
2022-09-05T16:59:56.880Z,1.40
2022-09-05T17:05:30.958Z,1.27
2022-09-05T17:11:06.194Z,1.80
2022-09-05T17:16:44.693Z,1.40
2022-09-05T17:24:41.680Z,1.47
2022-09-05T17:29:24.830Z,2.00
2022-09-05T17:33:54.608Z,1.70
2022-09-05T17:39:19.702Z,1.77
2022-09-05T17:44:30.095Z,2.20
2022-09-05T17:49:43.292Z,1.30
2022-09-05T17:54:50.125Z,1.97
2022-09-05T17:59:55.646Z,1.30
2022-09-05T18:05:07.356Z,1.40
2022-09-05T18:10:15.097Z,1.70
2022-09-05T18:16:04.953Z,1.70
2022-09-05T18:21:21.757Z,1.97
2022-09-05T18:26:29.202Z,1.90
2022-09-05T18:32:03.575Z,2.10
2022-09-05T18:37:42.354Z,1.60
2022-09-05T18:42:54.722Z,1.80
2022-09-05T18:48:04.208Z,2.33
2022-09-05T18:53:19.517Z,1.90
2022-09-05T18:58:34.517Z,2.50
2022-09-05T19:03:52.299Z,1.90
2022-09-05T19:09:00.884Z,1.93
2022-09-05T19:14:25.613Z,3.07
2022-09-05T19:20:15.549Z,1.80
2022-09-05T19:25:24.911Z,2.40
2022-09-05T19:36:59.233Z,2.30
2022-09-05T19:37:14.271Z,2.10
2022-09-05T19:45:34.399Z,2.43
2022-09-05T19:47:46.864Z,2.00
2022-09-05T19:52:22.718Z,2.27
2022-09-05T19:57:29.535Z,1.97
2022-09-05T20:02:34.247Z,2.40
2022-09-05T20:07:53.671Z,3.07
2022-09-05T20:12:57.971Z,2.60
2022-09-05T20:18:19.898Z,2.90
2022-09-05T20:23:28.522Z,2.83
2022-09-05T20:28:35.856Z,3.10
2022-09-05T20:33:45.840Z,2.47
2022-09-05T20:43:20.288Z,3.40
2022-09-05T20:44:24.989Z,2.73
2022-09-05T20:54:05.523Z,2.63
2022-09-05T20:54:59.096Z,2.77
2022-09-05T21:00:24.664Z,2.20
2022-09-05T21:05:31.216Z,2.90
2022-09-05T21:10:55.771Z,2.80
2022-09-05T21:16:01.283Z,2.87
2022-09-05T21:21:28.392Z,2.60
2022-09-05T21:26:32.513Z,3.03
2022-09-05T21:31:43.768Z,2.47
2022-09-05T21:36:48.584Z,2.60
2022-09-05T21:42:11.551Z,2.40
2022-09-05T21:47:41.435Z,3.07
2022-09-05T21:53:11.892Z,2.50
2022-09-05T21:59:25.144Z,2.90
2022-09-05T22:03:44.642Z,2.80
2022-09-05T22:08:55.032Z,2.70
2022-09-05T22:14:13.917Z,2.40
2022-09-05T22:19:23.127Z,2.97
2022-09-05T22:24:30.758Z,2.57
2022-09-05T22:29:36.098Z,2.50
2022-09-05T22:34:40.308Z,3.37
2022-09-05T22:39:44.832Z,3.40
2022-09-05T22:44:50.278Z,2.90
2022-09-05T22:49:54.490Z,3.20
2022-09-05T22:54:58.650Z,3.17
2022-09-05T23:00:04.814Z,3.03
2022-09-05T23:05:09.332Z,3.60
2022-09-05T23:10:13.162Z,3.30
2022-09-05T23:15:18.973Z,3.33
2022-09-05T23:20:23.136Z,3.93
2022-09-05T23:25:26.975Z,3.03
2022-09-05T23:30:32.052Z,3.30
2022-09-05T23:35:36.015Z,3.50
2022-09-05T23:40:40.193Z,3.07
2022-09-05T23:45:48.259Z,3.77
2022-09-05T23:50:52.888Z,3.57
2022-09-05T23:56:00.556Z,3.50
